createdAt,value
2023-02-06T00:02:56.355Z,66.10
2023-02-06T00:08:02.735Z,64.50
2023-02-06T00:13:08.417Z,76.90
2023-02-06T00:18:14.301Z,75.30
2023-02-06T00:23:19.903Z,79.90
2023-02-06T00:28:25.471Z,75.20
2023-02-06T00:33:31.362Z,81.20
2023-02-06T00:38:38.287Z,81.60
2023-02-06T00:43:44.124Z,71.20
2023-02-06T00:48:49.712Z,73.60
2023-02-06T00:53:55.509Z,69.10
2023-02-06T01:04:48.766Z,53.40
2023-02-06T01:09:54.560Z,71.30
2023-02-06T01:15:01.503Z,76.60
2023-02-06T01:20:11.624Z,72.40
2023-02-06T01:25:17.514Z,82.40
2023-02-06T01:30:23.564Z,79.10
2023-02-06T01:35:29.763Z,73.10
2023-02-06T01:40:35.421Z,72.20
2023-02-06T01:45:46.307Z,74.90
2023-02-06T01:50:56.836Z,77.20
2023-02-06T02:01:09.452Z,78.60
2023-02-06T02:06:18.995Z,88.00
2023-02-06T02:11:29.020Z,88.70
2023-02-06T02:16:47.116Z,95.20
2023-02-06T02:22:31.028Z,97.20
2023-02-06T02:28:05.586Z,99.80
2023-02-06T02:33:49.714Z,80.80
2023-02-06T02:39:05.084Z,76.60
2023-02-06T02:44:19.708Z,76.50
2023-02-06T02:49:29.994Z,69.60
2023-02-06T02:54:36.840Z,72.60
2023-02-06T02:59:46.781Z,69.30
2023-02-06T03:04:56.764Z,80.00
2023-02-06T03:10:13.091Z,85.50
2023-02-06T03:15:28.188Z,80.30
2023-02-06T03:20:36.976Z,82.90
2023-02-06T03:25:45.421Z,81.80
2023-02-06T03:30:56.612Z,76.70
2023-02-06T03:36:05.405Z,70.70
2023-02-06T03:41:12.692Z,67.80
2023-02-06T03:46:19.889Z,68.50
2023-02-06T03:51:29.170Z,64.60
2023-02-06T03:56:39.835Z,75.00
2023-02-06T04:01:50.467Z,77.30
2023-02-06T04:06:57.455Z,79.30
2023-02-06T04:12:03.187Z,80.50
2023-02-06T04:17:09.535Z,79.70
2023-02-06T04:22:16.608Z,76.90
2023-02-06T04:27:22.232Z,75.30
2023-02-06T04:32:28.011Z,73.80
2023-02-06T04:37:33.951Z,76.40
2023-02-06T04:42:39.670Z,71.30
2023-02-06T04:47:49.408Z,71.00
2023-02-06T04:52:54.997Z,89.20
2023-02-06T04:58:00.746Z,76.50
2023-02-06T05:03:06.510Z,75.70
2023-02-06T05:08:12.144Z,90.20
2023-02-06T05:13:17.909Z,82.10
2023-02-06T05:20:22.544Z,86.40
2023-02-06T05:25:28.512Z,82.70
2023-02-06T05:30:34.732Z,82.30
2023-02-06T05:35:40.703Z,74.80
2023-02-06T05:40:49.832Z,71.40
2023-02-06T05:45:55.446Z,88.20
2023-02-06T05:51:01.913Z,231.20
2023-02-06T05:56:08.306Z,207.90
2023-02-06T06:01:14.714Z,213.80
2023-02-06T06:06:20.340Z,187.40
2023-02-06T06:11:26.140Z,157.00
2023-02-06T06:16:32.092Z,122.80
2023-02-06T06:21:37.978Z,110.30
2023-02-06T06:26:43.829Z,100.30
2023-02-06T06:32:00.648Z,102.20
2023-02-06T06:41:35.663Z,109.30
2023-02-06T06:46:41.444Z,106.50
2023-02-06T06:51:49.355Z,126.20
2023-02-06T06:56:55.107Z,122.10
2023-02-06T07:02:00.875Z,121.80
2023-02-06T07:07:06.760Z,96.30
2023-02-06T07:12:12.681Z,106.80
2023-02-06T07:17:18.441Z,113.20
2023-02-06T07:22:25.965Z,115.30
2023-02-06T07:27:32.023Z,108.90
2023-02-06T07:32:38.285Z,105.00
2023-02-06T07:37:43.925Z,104.30
2023-02-06T07:42:49.734Z,92.40
2023-02-06T07:48:00.720Z,84.80
2023-02-06T07:53:07.791Z,93.90
2023-02-06T07:58:13.485Z,97.60
2023-02-06T08:03:20.979Z,92.60
2023-02-06T08:08:26.865Z,82.20
2023-02-06T08:13:32.776Z,70.20
2023-02-06T08:18:38.895Z,70.50
2023-02-06T08:23:44.884Z,65.60
2023-02-06T08:28:54.227Z,60.10
2023-02-06T08:33:59.925Z,63.40
2023-02-06T08:39:07.416Z,69.00
2023-02-06T08:44:16.224Z,64.40
2023-02-06T08:49:23.560Z,73.80
2023-02-06T08:54:29.979Z,67.20
2023-02-06T08:59:35.728Z,66.30
2023-02-06T09:04:42.783Z,65.60
2023-02-06T09:09:48.583Z,58.20
2023-02-06T09:14:54.384Z,61.20
2023-02-06T09:20:00.211Z,53.80
2023-02-06T09:25:06.789Z,52.30
2023-02-06T09:30:15.887Z,49.40
2023-02-06T09:35:29.099Z,57.00
2023-02-06T09:40:36.017Z,50.30
2023-02-06T09:45:42.785Z,54.70
2023-02-06T09:50:57.886Z,52.20
2023-02-06T09:56:15.528Z,54.60
2023-02-06T10:01:38.764Z,53.40
2023-02-06T10:06:52.820Z,54.50
2023-02-06T10:12:03.401Z,48.80
2023-02-06T10:17:18.556Z,51.70
2023-02-06T10:22:30.466Z,46.90
2023-02-06T10:27:37.741Z,45.80
2023-02-06T10:32:49.883Z,45.70
2023-02-06T10:38:22.785Z,45.80
2023-02-06T10:43:36.989Z,42.40
2023-02-06T10:48:58.088Z,49.60
2023-02-06T10:54:06.597Z,53.20
2023-02-06T10:59:22.409Z,52.10
2023-02-06T11:04:36.977Z,56.60
2023-02-06T11:09:42.817Z,44.30
2023-02-06T11:14:49.659Z,47.00
2023-02-06T11:20:01.762Z,48.20
2023-02-06T11:25:18.628Z,49.40
2023-02-06T11:30:31.985Z,50.60
2023-02-06T11:35:41.432Z,50.40
2023-02-06T11:40:56.709Z,50.10
2023-02-06T11:46:15.388Z,52.10
2023-02-06T11:51:21.828Z,51.90
2023-02-06T11:56:28.898Z,45.40
2023-02-06T12:01:43.897Z,44.10
2023-02-06T12:06:50.932Z,44.00
2023-02-06T12:12:03.424Z,39.20
2023-02-06T12:17:24.255Z,40.60
2023-02-06T12:22:42.160Z,34.50
2023-02-06T12:27:48.510Z,39.00
2023-02-06T12:33:00.292Z,38.20
2023-02-06T12:38:14.055Z,42.30
2023-02-06T12:43:30.517Z,41.50
2023-02-06T12:48:41.506Z,48.60
2023-02-06T12:53:51.950Z,48.60
2023-02-06T12:59:16.545Z,49.60
2023-02-06T13:04:25.585Z,56.40
2023-02-06T13:09:34.956Z,47.50
2023-02-06T13:14:48.332Z,51.20
2023-02-06T13:20:02.725Z,46.20
2023-02-06T13:25:51.424Z,48.80
2023-02-06T13:31:04.706Z,53.80
2023-02-06T13:36:25.865Z,54.80
2023-02-06T13:41:37.737Z,52.70
2023-02-06T13:47:08.816Z,51.70
2023-02-06T13:57:32.619Z,56.90
2023-02-06T14:02:41.165Z,61.20
2023-02-06T14:08:15.671Z,52.10
2023-02-06T14:13:34.680Z,55.90
2023-02-06T14:18:51.164Z,54.60
2023-02-06T14:24:08.867Z,55.10
2023-02-06T14:29:25.306Z,49.70
2023-02-06T14:34:44.738Z,50.00
2023-02-06T14:39:53.375Z,52.10
2023-02-06T14:45:03.204Z,47.10
2023-02-06T14:50:18.780Z,53.80
2023-02-06T14:55:37.217Z,51.60
2023-02-06T15:00:43.776Z,55.70
2023-02-06T15:06:00.728Z,53.20
2023-02-06T15:11:19.207Z,55.70
2023-02-06T15:16:24.996Z,58.00
2023-02-06T15:21:30.828Z,60.20
2023-02-06T15:26:43.317Z,57.30
2023-02-06T15:31:51.641Z,63.40
2023-02-06T15:36:57.575Z,73.20
2023-02-06T15:42:04.493Z,77.60
2023-02-06T15:47:15.660Z,83.60
2023-02-06T15:52:37.135Z,98.50
2023-02-06T15:57:45.291Z,107.10
2023-02-06T16:02:53.210Z,110.00
2023-02-06T16:08:00.027Z,106.00
2023-02-06T16:13:11.329Z,116.40
2023-02-06T16:18:32.120Z,122.00
2023-02-06T16:23:48.368Z,117.70
2023-02-06T16:28:59.432Z,115.20
2023-02-06T16:34:22.257Z,135.20
2023-02-06T16:39:28.045Z,127.50
2023-02-06T16:44:44.297Z,117.60
2023-02-06T16:49:52.279Z,131.20
2023-02-06T16:54:59.301Z,136.10
2023-02-06T17:00:09.568Z,150.80
2023-02-06T17:05:15.808Z,144.70
2023-02-06T17:10:24.603Z,151.30
2023-02-06T17:15:32.075Z,145.10
2023-02-06T17:20:40.593Z,141.60
2023-02-06T17:25:47.287Z,142.40
2023-02-06T17:30:53.626Z,147.40
2023-02-06T17:35:59.624Z,132.10
2023-02-06T17:41:05.393Z,128.10
2023-02-06T17:46:13.089Z,142.90
2023-02-06T17:51:18.693Z,151.20
2023-02-06T17:56:24.947Z,157.40
2023-02-06T18:01:30.670Z,149.50
2023-02-06T18:06:36.499Z,158.50
2023-02-06T18:11:42.298Z,152.10
2023-02-06T18:16:47.917Z,143.70
2023-02-06T18:21:53.627Z,135.30
2023-02-06T18:27:03.131Z,117.10
2023-02-06T18:32:10.226Z,104.50
2023-02-06T18:37:16.470Z,117.50
2023-02-06T18:42:41.277Z,114.30
2023-02-06T18:47:47.240Z,115.50
2023-02-06T18:52:53.372Z,120.50
2023-02-06T18:57:59.103Z,118.40
2023-02-06T19:03:05.216Z,114.80
2023-02-06T19:08:11.045Z,117.00
2023-02-06T19:13:16.815Z,117.40
2023-02-06T19:18:35.978Z,117.60
2023-02-06T19:23:44.675Z,147.60
2023-02-06T19:28:50.611Z,135.80
2023-02-06T19:33:59.112Z,120.00
2023-02-06T19:39:07.235Z,114.00
2023-02-06T19:44:14.235Z,110.00
2023-02-06T19:49:20.034Z,112.90
2023-02-06T19:54:25.908Z,124.90
2023-02-06T19:59:32.208Z,123.80
2023-02-06T20:04:39.865Z,119.40
2023-02-06T20:09:45.614Z,121.80
2023-02-06T20:15:00.134Z,117.40
2023-02-06T20:20:08.144Z,121.70
2023-02-06T20:25:14.079Z,115.70
2023-02-06T20:30:23.998Z,147.70
2023-02-06T20:35:30.182Z,124.90
2023-02-06T20:40:36.885Z,118.00
2023-02-06T20:45:43.714Z,108.90
2023-02-06T20:50:49.733Z,109.20
2023-02-06T20:55:55.585Z,115.40
2023-02-06T21:01:01.411Z,121.40
2023-02-06T21:06:07.431Z,117.40
2023-02-06T21:11:13.415Z,118.60
2023-02-06T21:16:19.319Z,119.40
2023-02-06T21:21:26.347Z,130.40
2023-02-06T21:26:32.903Z,119.70
2023-02-06T21:31:39.196Z,107.60
2023-02-06T21:36:45.228Z,113.70
2023-02-06T21:41:53.673Z,102.70
2023-02-06T21:46:59.439Z,98.30
2023-02-06T21:52:05.222Z,91.40
2023-02-06T21:57:10.974Z,93.10
2023-02-06T22:02:16.560Z,92.60
2023-02-06T22:07:22.236Z,93.80
2023-02-06T22:12:27.996Z,105.00
2023-02-06T22:17:34.701Z,98.60
2023-02-06T22:22:41.232Z,97.10
2023-02-06T22:27:46.829Z,88.40
2023-02-06T22:32:52.527Z,81.30
2023-02-06T22:37:58.233Z,92.00
2023-02-06T22:43:03.856Z,87.20
2023-02-06T22:48:09.812Z,89.40
2023-02-06T22:53:32.006Z,85.20
2023-02-06T22:58:37.848Z,75.60
2023-02-06T23:03:43.484Z,78.10
2023-02-06T23:08:49.191Z,84.10
2023-02-06T23:13:56.677Z,86.50
2023-02-06T23:19:04.676Z,92.80
2023-02-06T23:24:11.798Z,76.50
2023-02-06T23:29:19.117Z,70.80
2023-02-06T23:34:25.421Z,83.00
2023-02-06T23:39:31.114Z,80.00
2023-02-06T23:44:36.948Z,89.80
2023-02-06T23:49:42.913Z,70.80
2023-02-06T23:54:48.473Z,79.40
2023-02-06T23:59:54.036Z,87.30
